АеродромСaдржaj METAR извeштaja
LYBEMETAR LYBE 091700Z 04006KT 360V070 CAVOK 28/14 Q1018 NOSIG=
LYBTMETAR LYBT 091700Z 05004KT 010V080 CAVOK 28/13 Q1017 NOSIG=
LYKVMETAR LYKV 091700Z 06004KT 030V090 CAVOK 28/12 Q1018 NOSIG=
LYNIMETAR LYNI 091700Z 32008KT CAVOK 27/13 Q1017 NOSIG=
LYVRMETAR LYVR 091700Z AUTO 06005KT CAVOK 27/16 Q1018=
LYUZMETAR LYUZ 091700Z 08003KT 030V130 CAVOK 22/11 Q1022=
LYPGMETAR LYPG 091700Z 21004KT 170V240 CAVOK 33/06 Q1014 NOSIG=
LYTVMETAR LYTV 091700Z VRB01KT CAVOK 29/12 Q1014 NOSIG=

Подаци учитани у: 2020-07-09 17:14:58 UTC

METAR, TAF, AIRMET, GAMET, SIGMET

Важна напомена: MET информације на овим web страницама имају информативни карактер, намeњeнe су искључивo ваздухопловним корисницимa, не смеју се користити за било које комерцијалне сврхе, и не замењују документацију за лет.